sensor_id;sensor_type;location;lat;lon;timestamp;P1;durP1;ratioP1;P2;durP2;ratioP2
54841;SDS011;40741;45.002;7.536;2023-02-15T00:01:35;32.50;;;12.23;;
54841;SDS011;40741;45.002;7.536;2023-02-15T00:04:02;23.33;;;10.43;;
54841;SDS011;40741;45.002;7.536;2023-02-15T00:06:28;28.90;;;9.45;;
54841;SDS011;40741;45.002;7.536;2023-02-15T00:08:54;25.23;;;10.73;;
54841;SDS011;40741;45.002;7.536;2023-02-15T00:11:21;25.98;;;11.07;;
54841;SDS011;40741;45.002;7.536;2023-02-15T00:14:07;24.17;;;11.05;;
54841;SDS011;40741;45.002;7.536;2023-02-15T00:16:33;23.42;;;10.77;;
54841;SDS011;40741;45.002;7.536;2023-02-15T00:19:00;51.42;;;10.70;;
54841;SDS011;40741;45.002;7.536;2023-02-15T00:21:27;23.15;;;11.52;;
54841;SDS011;40741;45.002;7.536;2023-02-15T00:23:54;29.77;;;11.20;;
54841;SDS011;40741;45.002;7.536;2023-02-15T00:26:20;30.23;;;11.07;;
54841;SDS011;40741;45.002;7.536;2023-02-15T00:28:46;33.13;;;13.25;;
54841;SDS011;40741;45.002;7.536;2023-02-15T00:31:12;21.45;;;9.65;;
54841;SDS011;40741;45.002;7.536;2023-02-15T00:33:38;19.45;;;9.20;;
54841;SDS011;40741;45.002;7.536;2023-02-15T00:36:06;17.83;;;8.52;;
54841;SDS011;40741;45.002;7.536;2023-02-15T00:38:32;24.55;;;11.18;;
54841;SDS011;40741;45.002;7.536;2023-02-15T00:40:59;21.85;;;9.45;;
54841;SDS011;40741;45.002;7.536;2023-02-15T00:43:26;21.20;;;10.52;;
54841;SDS011;40741;45.002;7.536;2023-02-15T00:45:53;26.58;;;11.43;;
54841;SDS011;40741;45.002;7.536;2023-02-15T00:48:19;21.65;;;9.57;;
54841;SDS011;40741;45.002;7.536;2023-02-15T00:50:46;22.42;;;12.88;;
54841;SDS011;40741;45.002;7.536;2023-02-15T00:53:12;14.63;;;8.23;;
54841;SDS011;40741;45.002;7.536;2023-02-15T00:55:38;28.10;;;8.57;;
54841;SDS011;40741;45.002;7.536;2023-02-15T00:58:05;15.75;;;6.18;;
54841;SDS011;40741;45.002;7.536;2023-02-15T01:00:32;17.48;;;9.07;;
54841;SDS011;40741;45.002;7.536;2023-02-15T01:02:58;20.25;;;9.80;;
54841;SDS011;40741;45.002;7.536;2023-02-15T01:05:24;38.53;;;12.63;;
54841;SDS011;40741;45.002;7.536;2023-02-15T01:07:50;23.27;;;9.35;;
54841;SDS011;40741;45.002;7.536;2023-02-15T01:10:16;23.25;;;9.93;;
54841;SDS011;40741;45.002;7.536;2023-02-15T01:12:42;19.92;;;9.43;;
54841;SDS011;40741;45.002;7.536;2023-02-15T01:15:08;18.92;;;8.23;;
54841;SDS011;40741;45.002;7.536;2023-02-15T01:17:35;24.48;;;12.45;;
54841;SDS011;40741;45.002;7.536;2023-02-15T01:20:01;24.55;;;10.35;;
54841;SDS011;40741;45.002;7.536;2023-02-15T01:22:27;14.52;;;10.35;;
54841;SDS011;40741;45.002;7.536;2023-02-15T01:24:53;25.23;;;9.45;;
54841;SDS011;40741;45.002;7.536;2023-02-15T01:27:19;25.83;;;11.27;;
54841;SDS011;40741;45.002;7.536;2023-02-15T01:29:45;20.00;;;8.77;;
54841;SDS011;40741;45.002;7.536;2023-02-15T01:32:12;12.63;;;7.50;;
54841;SDS011;40741;45.002;7.536;2023-02-15T01:34:38;23.50;;;11.05;;
54841;SDS011;40741;45.002;7.536;2023-02-15T01:37:04;27.60;;;11.13;;
54841;SDS011;40741;45.002;7.536;2023-02-15T01:39:30;16.90;;;10.63;;
54841;SDS011;40741;45.002;7.536;2023-02-15T01:41:56;22.35;;;9.70;;
54841;SDS011;40741;45.002;7.536;2023-02-15T01:47:07;17.65;;;8.68;;
54841;SDS011;40741;45.002;7.536;2023-02-15T01:49:35;23.95;;;10.68;;
54841;SDS011;40741;45.002;7.536;2023-02-15T01:52:01;18.00;;;9.15;;
54841;SDS011;40741;45.002;7.536;2023-02-15T01:54:29;22.55;;;11.13;;
54841;SDS011;40741;45.002;7.536;2023-02-15T01:56:58;24.60;;;8.40;;
54841;SDS011;40741;45.002;7.536;2023-02-15T01:59:26;13.23;;;6.03;;
54841;SDS011;40741;45.002;7.536;2023-02-15T02:01:52;14.95;;;7.63;;
54841;SDS011;40741;45.002;7.536;2023-02-15T02:04:29;15.38;;;8.80;;
54841;SDS011;40741;45.002;7.536;2023-02-15T02:06:57;14.43;;;8.27;;
54841;SDS011;40741;45.002;7.536;2023-02-15T02:09:23;20.80;;;8.30;;
54841;SDS011;40741;45.002;7.536;2023-02-15T02:11:49;10.10;;;6.85;;
54841;SDS011;40741;45.002;7.536;2023-02-15T02:14:16;6.90;;;4.53;;
54841;SDS011;40741;45.002;7.536;2023-02-15T02:24:28;14.15;;;7.60;;
54841;SDS011;40741;45.002;7.536;2023-02-15T02:29:47;11.48;;;8.18;;
54841;SDS011;40741;45.002;7.536;2023-02-15T02:40:16;13.25;;;6.47;;
54841;SDS011;40741;45.002;7.536;2023-02-15T02:43:05;16.33;;;6.53;;
54841;SDS011;40741;45.002;7.536;2023-02-15T02:45:39;16.55;;;7.68;;
54841;SDS011;40741;45.002;7.536;2023-02-15T02:48:11;32.67;;;8.25;;
54841;SDS011;40741;45.002;7.536;2023-02-15T02:50:39;11.30;;;5.20;;
54841;SDS011;40741;45.002;7.536;2023-02-15T02:53:05;14.75;;;6.82;;
54841;SDS011;40741;45.002;7.536;2023-02-15T02:55:33;19.35;;;6.60;;
54841;SDS011;40741;45.002;7.536;2023-02-15T02:58:05;10.45;;;5.88;;
54841;SDS011;40741;45.002;7.536;2023-02-15T03:03:45;14.52;;;6.97;;
54841;SDS011;40741;45.002;7.536;2023-02-15T03:05:45;10.82;;;6.28;;
54841;SDS011;40741;45.002;7.536;2023-02-15T03:08:14;19.50;;;6.68;;
54841;SDS011;40741;45.002;7.536;2023-02-15T03:10:46;12.43;;;5.15;;
54841;SDS011;40741;45.002;7.536;2023-02-15T03:13:13;14.90;;;5.68;;
54841;SDS011;40741;45.002;7.536;2023-02-15T03:15:40;12.10;;;7.70;;
54841;SDS011;40741;45.002;7.536;2023-02-15T03:18:28;15.32;;;5.10;;
54841;SDS011;40741;45.002;7.536;2023-02-15T03:20:56;14.07;;;4.75;;
54841;SDS011;40741;45.002;7.536;2023-02-15T03:23:24;9.18;;;4.57;;
54841;SDS011;40741;45.002;7.536;2023-02-15T03:25:58;11.90;;;5.55;;
54841;SDS011;40741;45.002;7.536;2023-02-15T03:31:20;15.85;;;4.78;;
54841;SDS011;40741;45.002;7.536;2023-02-15T03:33:50;10.70;;;4.10;;
54841;SDS011;40741;45.002;7.536;2023-02-15T03:36:29;9.90;;;5.60;;
54841;SDS011;40741;45.002;7.536;2023-02-15T03:39:42;10.07;;;5.00;;
54841;SDS011;40741;45.002;7.536;2023-02-15T03:41:48;8.18;;;3.92;;
54841;SDS011;40741;45.002;7.536;2023-02-15T03:47:04;14.00;;;6.05;;
54841;SDS011;40741;45.002;7.536;2023-02-15T03:49:29;14.88;;;5.40;;
54841;SDS011;40741;45.002;7.536;2023-02-15T03:51:57;7.78;;;5.05;;
54841;SDS011;40741;45.002;7.536;2023-02-15T03:54:25;6.28;;;4.63;;
54841;SDS011;40741;45.002;7.536;2023-02-15T03:57:11;8.68;;;5.20;;
54841;SDS011;40741;45.002;7.536;2023-02-15T03:59:57;8.18;;;5.07;;
54841;SDS011;40741;45.002;7.536;2023-02-15T04:05:17;9.18;;;4.22;;
54841;SDS011;40741;45.002;7.536;2023-02-15T04:07:43;7.00;;;4.85;;
54841;SDS011;40741;45.002;7.536;2023-02-15T04:10:09;16.20;;;5.75;;
54841;SDS011;40741;45.002;7.536;2023-02-15T04:12:54;13.93;;;5.72;;
54841;SDS011;40741;45.002;7.536;2023-02-15T04:15:20;13.40;;;6.70;;
54841;SDS011;40741;45.002;7.536;2023-02-15T04:18:05;15.25;;;6.38;;
54841;SDS011;40741;45.002;7.536;2023-02-15T04:20:31;11.98;;;4.68;;
54841;SDS011;40741;45.002;7.536;2023-02-15T04:23:15;4.43;;;3.90;;
54841;SDS011;40741;45.002;7.536;2023-02-15T04:26:02;18.73;;;7.45;;
54841;SDS011;40741;45.002;7.536;2023-02-15T04:28:29;7.05;;;4.35;;
54841;SDS011;40741;45.002;7.536;2023-02-15T04:30:55;13.85;;;5.95;;
54841;SDS011;40741;45.002;7.536;2023-02-15T04:33:21;11.80;;;5.97;;
54841;SDS011;40741;45.002;7.536;2023-02-15T04:35:47;16.50;;;5.35;;
54841;SDS011;40741;45.002;7.536;2023-02-15T04:38:13;21.77;;;5.10;;
54841;SDS011;40741;45.002;7.536;2023-02-15T04:40:40;6.88;;;5.40;;
54841;SDS011;40741;45.002;7.536;2023-02-15T04:43:06;11.32;;;4.47;;
54841;SDS011;40741;45.002;7.536;2023-02-15T04:45:32;10.20;;;5.60;;
54841;SDS011;40741;45.002;7.536;2023-02-15T04:47:58;13.15;;;4.45;;
54841;SDS011;40741;45.002;7.536;2023-02-15T04:50:24;10.82;;;4.55;;
54841;SDS011;40741;45.002;7.536;2023-02-15T04:52:50;12.25;;;4.35;;
54841;SDS011;40741;45.002;7.536;2023-02-15T04:55:16;8.57;;;6.65;;
54841;SDS011;40741;45.002;7.536;2023-02-15T04:57:42;9.00;;;5.63;;
54841;SDS011;40741;45.002;7.536;2023-02-15T05:00:08;9.30;;;6.53;;
54841;SDS011;40741;45.002;7.536;2023-02-15T05:02:34;7.57;;;4.22;;
54841;SDS011;40741;45.002;7.536;2023-02-15T05:05:00;17.38;;;7.40;;
54841;SDS011;40741;45.002;7.536;2023-02-15T05:07:26;16.38;;;7.82;;
54841;SDS011;40741;45.002;7.536;2023-02-15T05:09:52;5.65;;;2.83;;
54841;SDS011;40741;45.002;7.536;2023-02-15T05:12:19;11.98;;;4.97;;
54841;SDS011;40741;45.002;7.536;2023-02-15T05:14:45;10.75;;;6.05;;
54841;SDS011;40741;45.002;7.536;2023-02-15T05:17:11;11.05;;;7.13;;
54841;SDS011;40741;45.002;7.536;2023-02-15T05:19:37;12.88;;;6.18;;
54841;SDS011;40741;45.002;7.536;2023-02-15T05:22:03;15.85;;;7.82;;
54841;SDS011;40741;45.002;7.536;2023-02-15T05:24:29;22.27;;;6.35;;
54841;SDS011;40741;45.002;7.536;2023-02-15T05:27:13;17.30;;;4.93;;
54841;SDS011;40741;45.002;7.536;2023-02-15T05:29:58;11.30;;;6.38;;
54841;SDS011;40741;45.002;7.536;2023-02-15T05:32:24;18.70;;;6.10;;
54841;SDS011;40741;45.002;7.536;2023-02-15T05:34:50;5.82;;;3.60;;
54841;SDS011;40741;45.002;7.536;2023-02-15T05:37:16;16.75;;;8.05;;
54841;SDS011;40741;45.002;7.536;2023-02-15T05:39:42;6.60;;;4.10;;
54841;SDS011;40741;45.002;7.536;2023-02-15T05:42:08;14.35;;;7.05;;
54841;SDS011;40741;45.002;7.536;2023-02-15T05:44:34;15.40;;;5.75;;
54841;SDS011;40741;45.002;7.536;2023-02-15T05:47:00;16.70;;;6.38;;
54841;SDS011;40741;45.002;7.536;2023-02-15T05:49:28;10.95;;;6.40;;
54841;SDS011;40741;45.002;7.536;2023-02-15T05:51:55;16.60;;;5.53;;
54841;SDS011;40741;45.002;7.536;2023-02-15T05:54:21;13.63;;;5.70;;
54841;SDS011;40741;45.002;7.536;2023-02-15T05:56:47;5.90;;;4.32;;
54841;SDS011;40741;45.002;7.536;2023-02-15T05:59:13;9.90;;;4.60;;
54841;SDS011;40741;45.002;7.536;2023-02-15T06:01:39;10.60;;;6.18;;
54841;SDS011;40741;45.002;7.536;2023-02-15T06:04:05;10.13;;;6.00;;
54841;SDS011;40741;45.002;7.536;2023-02-15T06:06:31;15.55;;;4.97;;
54841;SDS011;40741;45.002;7.536;2023-02-15T06:08:59;11.68;;;6.20;;
54841;SDS011;40741;45.002;7.536;2023-02-15T06:11:25;8.93;;;4.95;;
54841;SDS011;40741;45.002;7.536;2023-02-15T06:13:52;6.30;;;4.65;;
54841;SDS011;40741;45.002;7.536;2023-02-15T06:16:18;9.60;;;5.43;;
54841;SDS011;40741;45.002;7.536;2023-02-15T06:18:44;16.08;;;6.47;;
54841;SDS011;40741;45.002;7.536;2023-02-15T06:21:10;19.58;;;6.65;;
54841;SDS011;40741;45.002;7.536;2023-02-15T06:23:36;10.82;;;5.60;;
54841;SDS011;40741;45.002;7.536;2023-02-15T06:26:03;6.13;;;3.85;;
54841;SDS011;40741;45.002;7.536;2023-02-15T06:28:29;8.38;;;6.07;;
54841;SDS011;40741;45.002;7.536;2023-02-15T06:30:55;9.23;;;5.55;;
54841;SDS011;40741;45.002;7.536;2023-02-15T06:33:21;10.95;;;4.22;;
54841;SDS011;40741;45.002;7.536;2023-02-15T06:35:47;8.35;;;5.10;;
54841;SDS011;40741;45.002;7.536;2023-02-15T06:38:13;25.13;;;10.25;;
54841;SDS011;40741;45.002;7.536;2023-02-15T06:40:39;15.73;;;5.25;;
54841;SDS011;40741;45.002;7.536;2023-02-15T06:43:05;15.20;;;7.45;;
54841;SDS011;40741;45.002;7.536;2023-02-15T06:45:31;10.95;;;6.13;;
54841;SDS011;40741;45.002;7.536;2023-02-15T06:47:57;14.68;;;6.07;;
54841;SDS011;40741;45.002;7.536;2023-02-15T06:50:23;19.98;;;6.28;;
54841;SDS011;40741;45.002;7.536;2023-02-15T06:52:55;22.08;;;8.32;;
54841;SDS011;40741;45.002;7.536;2023-02-15T06:55:21;15.15;;;7.07;;
54841;SDS011;40741;45.002;7.536;2023-02-15T06:57:47;19.95;;;7.38;;
54841;SDS011;40741;45.002;7.536;2023-02-15T07:00:13;30.15;;;6.72;;
54841;SDS011;40741;45.002;7.536;2023-02-15T07:02:39;13.63;;;7.72;;
54841;SDS011;40741;45.002;7.536;2023-02-15T07:05:06;19.60;;;8.10;;
54841;SDS011;40741;45.002;7.536;2023-02-15T07:07:32;17.45;;;6.82;;
54841;SDS011;40741;45.002;7.536;2023-02-15T07:09:58;12.98;;;6.55;;
54841;SDS011;40741;45.002;7.536;2023-02-15T07:12:24;16.08;;;8.98;;
54841;SDS011;40741;45.002;7.536;2023-02-15T07:15:13;11.82;;;6.85;;
54841;SDS011;40741;45.002;7.536;2023-02-15T07:17:40;22.02;;;7.70;;
54841;SDS011;40741;45.002;7.536;2023-02-15T07:20:10;14.43;;;6.47;;
54841;SDS011;40741;45.002;7.536;2023-02-15T07:22:36;18.50;;;8.18;;
54841;SDS011;40741;45.002;7.536;2023-02-15T07:25:03;27.48;;;6.88;;
54841;SDS011;40741;45.002;7.536;2023-02-15T07:27:30;14.68;;;6.47;;
54841;SDS011;40741;45.002;7.536;2023-02-15T07:29:56;17.50;;;8.82;;
54841;SDS011;40741;45.002;7.536;2023-02-15T07:32:22;17.20;;;7.53;;
54841;SDS011;40741;45.002;7.536;2023-02-15T07:34:48;19.02;;;9.95;;
54841;SDS011;40741;45.002;7.536;2023-02-15T07:37:14;21.75;;;8.32;;
54841;SDS011;40741;45.002;7.536;2023-02-15T07:39:41;14.55;;;8.15;;
54841;SDS011;40741;45.002;7.536;2023-02-15T07:42:07;9.40;;;6.60;;
54841;SDS011;40741;45.002;7.536;2023-02-15T07:44:33;29.83;;;9.48;;
54841;SDS011;40741;45.002;7.536;2023-02-15T07:46:59;20.60;;;6.43;;
54841;SDS011;40741;45.002;7.536;2023-02-15T07:49:25;22.65;;;13.10;;
54841;SDS011;40741;45.002;7.536;2023-02-15T07:51:52;33.85;;;9.20;;
54841;SDS011;40741;45.002;7.536;2023-02-15T07:54:18;20.65;;;9.98;;
54841;SDS011;40741;45.002;7.536;2023-02-15T07:56:44;18.33;;;7.72;;
54841;SDS011;40741;45.002;7.536;2023-02-15T07:59:10;23.60;;;10.98;;
54841;SDS011;40741;45.002;7.536;2023-02-15T08:01:37;13.35;;;8.55;;
54841;SDS011;40741;45.002;7.536;2023-02-15T08:04:04;15.02;;;10.18;;
54841;SDS011;40741;45.002;7.536;2023-02-15T08:06:31;22.75;;;7.93;;
54841;SDS011;40741;45.002;7.536;2023-02-15T08:08:58;18.35;;;8.40;;
54841;SDS011;40741;45.002;7.536;2023-02-15T08:11:26;2.42;;;1.85;;
54841;SDS011;40741;45.002;7.536;2023-02-15T08:14:12;18.50;;;9.30;;
54841;SDS011;40741;45.002;7.536;2023-02-15T08:16:39;14.65;;;7.32;;
54841;SDS011;40741;45.002;7.536;2023-02-15T08:19:09;19.58;;;8.30;;
54841;SDS011;40741;45.002;7.536;2023-02-15T08:21:37;15.30;;;8.20;;
54841;SDS011;40741;45.002;7.536;2023-02-15T08:24:03;23.17;;;10.90;;
54841;SDS011;40741;45.002;7.536;2023-02-15T08:26:30;18.58;;;10.70;;
54841;SDS011;40741;45.002;7.536;2023-02-15T08:28:56;16.58;;;9.10;;
54841;SDS011;40741;45.002;7.536;2023-02-15T08:31:22;22.35;;;11.20;;
54841;SDS011;40741;45.002;7.536;2023-02-15T08:33:49;17.92;;;10.25;;
54841;SDS011;40741;45.002;7.536;2023-02-15T08:36:17;22.08;;;10.50;;
54841;SDS011;40741;45.002;7.536;2023-02-15T08:38:43;19.83;;;8.50;;
54841;SDS011;40741;45.002;7.536;2023-02-15T08:43:35;18.55;;;9.85;;
54841;SDS011;40741;45.002;7.536;2023-02-15T08:46:01;31.05;;;11.15;;
54841;SDS011;40741;45.002;7.536;2023-02-15T08:48:27;22.00;;;9.18;;
54841;SDS011;40741;45.002;7.536;2023-02-15T08:50:53;23.73;;;9.60;;
54841;SDS011;40741;45.002;7.536;2023-02-15T08:53:20;17.95;;;8.77;;
54841;SDS011;40741;45.002;7.536;2023-02-15T08:55:46;18.27;;;9.18;;
54841;SDS011;40741;45.002;7.536;2023-02-15T08:58:16;14.25;;;8.93;;
54841;SDS011;40741;45.002;7.536;2023-02-15T09:00:42;23.95;;;7.88;;
54841;SDS011;40741;45.002;7.536;2023-02-15T09:03:08;31.58;;;7.85;;
54841;SDS011;40741;45.002;7.536;2023-02-15T09:05:34;18.00;;;9.52;;
54841;SDS011;40741;45.002;7.536;2023-02-15T09:08:00;17.38;;;7.72;;
54841;SDS011;40741;45.002;7.536;2023-02-15T09:10:26;15.13;;;7.07;;
54841;SDS011;40741;45.002;7.536;2023-02-15T09:12:52;17.05;;;9.73;;
54841;SDS011;40741;45.002;7.536;2023-02-15T09:15:18;21.83;;;8.70;;
54841;SDS011;40741;45.002;7.536;2023-02-15T09:17:44;13.07;;;6.53;;
54841;SDS011;40741;45.002;7.536;2023-02-15T09:20:11;19.40;;;8.90;;
54841;SDS011;40741;45.002;7.536;2023-02-15T09:22:37;18.02;;;7.88;;
54841;SDS011;40741;45.002;7.536;2023-02-15T09:25:03;21.77;;;11.18;;
54841;SDS011;40741;45.002;7.536;2023-02-15T09:27:29;18.77;;;8.60;;
54841;SDS011;40741;45.002;7.536;2023-02-15T09:29:55;13.77;;;7.97;;
54841;SDS011;40741;45.002;7.536;2023-02-15T09:32:21;19.27;;;9.15;;
54841;SDS011;40741;45.002;7.536;2023-02-15T09:34:47;24.67;;;8.75;;
54841;SDS011;40741;45.002;7.536;2023-02-15T09:37:13;17.17;;;9.90;;
54841;SDS011;40741;45.002;7.536;2023-02-15T09:39:40;38.67;;;10.82;;
54841;SDS011;40741;45.002;7.536;2023-02-15T09:44:40;39.20;;;10.73;;
54841;SDS011;40741;45.002;7.536;2023-02-15T10:00:18;16.63;;;8.10;;
54841;SDS011;40741;45.002;7.536;2023-02-15T10:13:21;3.70;;;3.38;;
54841;SDS011;40741;45.002;7.536;2023-02-15T10:15:53;16.35;;;6.53;;
54841;SDS011;40741;45.002;7.536;2023-02-15T10:20:52;21.25;;;8.85;;
54841;SDS011;40741;45.002;7.536;2023-02-15T10:26:09;14.80;;;7.35;;
54841;SDS011;40741;45.002;7.536;2023-02-15T10:31:35;16.08;;;9.38;;
54841;SDS011;40741;45.002;7.536;2023-02-15T10:34:19;17.30;;;8.57;;
54841;SDS011;40741;45.002;7.536;2023-02-15T10:49:44;13.45;;;7.35;;
54841;SDS011;40741;45.002;7.536;2023-02-15T10:52:21;7.35;;;3.88;;
54841;SDS011;40741;45.002;7.536;2023-02-15T10:57:43;2.45;;;2.25;;
54841;SDS011;40741;45.002;7.536;2023-02-15T11:07:40;12.00;;;3.65;;
54841;SDS011;40741;45.002;7.536;2023-02-15T11:12:33;15.63;;;5.25;;
54841;SDS011;40741;45.002;7.536;2023-02-15T11:15:04;13.30;;;6.38;;
54841;SDS011;40741;45.002;7.536;2023-02-15T11:17:38;7.38;;;5.75;;
54841;SDS011;40741;45.002;7.536;2023-02-15T11:22:34;11.98;;;5.35;;
54841;SDS011;40741;45.002;7.536;2023-02-15T11:25:00;14.02;;;5.65;;
54841;SDS011;40741;45.002;7.536;2023-02-15T11:27:31;9.90;;;5.63;;
54841;SDS011;40741;45.002;7.536;2023-02-15T11:30:20;16.00;;;5.05;;
54841;SDS011;40741;45.002;7.536;2023-02-15T11:32:44;15.48;;;8.65;;
54841;SDS011;40741;45.002;7.536;2023-02-15T11:40:23;7.93;;;3.20;;
54841;SDS011;40741;45.002;7.536;2023-02-15T11:42:51;9.38;;;4.47;;
54841;SDS011;40741;45.002;7.536;2023-02-15T11:45:30;16.33;;;5.50;;
54841;SDS011;40741;45.002;7.536;2023-02-15T11:47:57;12.20;;;5.68;;
54841;SDS011;40741;45.002;7.536;2023-02-15T11:50:24;7.40;;;2.92;;
54841;SDS011;40741;45.002;7.536;2023-02-15T11:52:52;11.98;;;4.03;;
54841;SDS011;40741;45.002;7.536;2023-02-15T11:55:20;17.05;;;5.38;;
54841;SDS011;40741;45.002;7.536;2023-02-15T11:58:09;6.78;;;3.53;;
54841;SDS011;40741;45.002;7.536;2023-02-15T12:00:41;7.32;;;3.67;;
54841;SDS011;40741;45.002;7.536;2023-02-15T12:03:15;9.60;;;3.70;;
54841;SDS011;40741;45.002;7.536;2023-02-15T12:05:44;2.17;;;1.98;;
54841;SDS011;40741;45.002;7.536;2023-02-15T12:08:15;16.40;;;5.07;;
54841;SDS011;40741;45.002;7.536;2023-02-15T12:10:58;16.77;;;5.30;;
54841;SDS011;40741;45.002;7.536;2023-02-15T12:13:26;11.60;;;4.38;;
54841;SDS011;40741;45.002;7.536;2023-02-15T12:15:56;6.68;;;2.80;;
54841;SDS011;40741;45.002;7.536;2023-02-15T12:20:51;15.18;;;6.25;;
54841;SDS011;40741;45.002;7.536;2023-02-15T12:23:17;5.60;;;2.75;;
54841;SDS011;40741;45.002;7.536;2023-02-15T12:25:54;3.42;;;2.08;;
54841;SDS011;40741;45.002;7.536;2023-02-15T12:28:31;2.15;;;1.52;;
54841;SDS011;40741;45.002;7.536;2023-02-15T12:30:58;0.90;;;0.85;;
54841;SDS011;40741;45.002;7.536;2023-02-15T12:35:56;11.20;;;4.32;;
54841;SDS011;40741;45.002;7.536;2023-02-15T12:38:24;2.63;;;1.52;;
54841;SDS011;40741;45.002;7.536;2023-02-15T12:41:01;10.60;;;5.10;;
54841;SDS011;40741;45.002;7.536;2023-02-15T12:43:30;9.15;;;4.18;;
54841;SDS011;40741;45.002;7.536;2023-02-15T12:49:06;4.95;;;1.90;;
54841;SDS011;40741;45.002;7.536;2023-02-15T12:51:43;14.40;;;5.75;;
54841;SDS011;40741;45.002;7.536;2023-02-15T12:54:29;9.85;;;4.07;;
54841;SDS011;40741;45.002;7.536;2023-02-15T12:56:55;9.35;;;2.78;;
54841;SDS011;40741;45.002;7.536;2023-02-15T12:59:24;4.28;;;2.40;;
54841;SDS011;40741;45.002;7.536;2023-02-15T13:01:51;5.85;;;2.38;;
54841;SDS011;40741;45.002;7.536;2023-02-15T13:06:48;3.22;;;1.88;;
54841;SDS011;40741;45.002;7.536;2023-02-15T13:11:43;6.90;;;2.65;;
54841;SDS011;40741;45.002;7.536;2023-02-15T13:14:25;5.88;;;3.33;;
54841;SDS011;40741;45.002;7.536;2023-02-15T13:16:54;13.68;;;4.20;;
54841;SDS011;40741;45.002;7.536;2023-02-15T13:19:57;5.65;;;2.90;;
54841;SDS011;40741;45.002;7.536;2023-02-15T13:22:17;8.20;;;3.65;;
54841;SDS011;40741;45.002;7.536;2023-02-15T13:24:48;8.73;;;3.22;;
54841;SDS011;40741;45.002;7.536;2023-02-15T13:27:21;10.43;;;3.33;;
54841;SDS011;40741;45.002;7.536;2023-02-15T13:29:53;20.60;;;5.65;;
54841;SDS011;40741;45.002;7.536;2023-02-15T13:34:58;7.63;;;3.97;;
54841;SDS011;40741;45.002;7.536;2023-02-15T13:40:33;1.30;;;0.95;;
54841;SDS011;40741;45.002;7.536;2023-02-15T14:01:34;5.25;;;3.13;;
54841;SDS011;40741;45.002;7.536;2023-02-15T14:09:24;16.17;;;4.95;;
54841;SDS011;40741;45.002;7.536;2023-02-15T14:19:57;12.32;;;2.83;;
54841;SDS011;40741;45.002;7.536;2023-02-15T14:22:31;3.70;;;1.65;;
54841;SDS011;40741;45.002;7.536;2023-02-15T14:32:46;18.95;;;3.85;;
54841;SDS011;40741;45.002;7.536;2023-02-15T14:35:17;3.95;;;2.38;;
54841;SDS011;40741;45.002;7.536;2023-02-15T14:40:24;3.38;;;1.88;;
54841;SDS011;40741;45.002;7.536;2023-02-15T14:43:11;3.03;;;2.45;;
54841;SDS011;40741;45.002;7.536;2023-02-15T14:45:43;9.15;;;4.20;;
54841;SDS011;40741;45.002;7.536;2023-02-15T14:48:14;13.48;;;3.08;;
54841;SDS011;40741;45.002;7.536;2023-02-15T14:50:46;12.40;;;4.22;;
54841;SDS011;40741;45.002;7.536;2023-02-15T14:58:35;7.00;;;2.78;;
54841;SDS011;40741;45.002;7.536;2023-02-15T15:01:08;19.58;;;6.68;;
54841;SDS011;40741;45.002;7.536;2023-02-15T15:03:35;7.50;;;3.50;;
54841;SDS011;40741;45.002;7.536;2023-02-15T15:06:03;10.68;;;3.65;;
54841;SDS011;40741;45.002;7.536;2023-02-15T15:11:37;14.40;;;4.65;;
54841;SDS011;40741;45.002;7.536;2023-02-15T15:13:53;12.40;;;4.35;;
54841;SDS011;40741;45.002;7.536;2023-02-15T15:17:02;14.07;;;5.72;;
54841;SDS011;40741;45.002;7.536;2023-02-15T15:19:09;13.38;;;6.07;;
54841;SDS011;40741;45.002;7.536;2023-02-15T15:29:51;16.50;;;5.13;;
54841;SDS011;40741;45.002;7.536;2023-02-15T15:32:19;18.65;;;5.45;;
54841;SDS011;40741;45.002;7.536;2023-02-15T15:34:54;13.57;;;4.07;;
54841;SDS011;40741;45.002;7.536;2023-02-15T15:37:33;17.90;;;5.07;;
54841;SDS011;40741;45.002;7.536;2023-02-15T15:45:41;12.85;;;5.72;;
54841;SDS011;40741;45.002;7.536;2023-02-15T15:51:30;14.70;;;4.20;;
54841;SDS011;40741;45.002;7.536;2023-02-15T15:53:48;14.38;;;4.38;;
54841;SDS011;40741;45.002;7.536;2023-02-15T15:56:19;13.18;;;4.90;;
54841;SDS011;40741;45.002;7.536;2023-02-15T15:58:53;8.23;;;3.78;;
54841;SDS011;40741;45.002;7.536;2023-02-15T16:01:27;12.95;;;5.35;;
54841;SDS011;40741;45.002;7.536;2023-02-15T16:03:55;12.93;;;4.45;;
54841;SDS011;40741;45.002;7.536;2023-02-15T16:06:28;21.27;;;5.85;;
54841;SDS011;40741;45.002;7.536;2023-02-15T16:08:54;20.90;;;5.78;;
54841;SDS011;40741;45.002;7.536;2023-02-15T16:11:22;15.70;;;6.75;;
54841;SDS011;40741;45.002;7.536;2023-02-15T16:13:48;16.10;;;6.88;;
54841;SDS011;40741;45.002;7.536;2023-02-15T16:16:22;10.45;;;3.65;;
54841;SDS011;40741;45.002;7.536;2023-02-15T16:18:49;10.60;;;4.03;;
54841;SDS011;40741;45.002;7.536;2023-02-15T16:21:23;13.50;;;5.80;;
54841;SDS011;40741;45.002;7.536;2023-02-15T16:26:28;13.32;;;5.28;;
54841;SDS011;40741;45.002;7.536;2023-02-15T16:28:57;8.85;;;4.85;;
54841;SDS011;40741;45.002;7.536;2023-02-15T16:31:24;13.15;;;4.55;;
54841;SDS011;40741;45.002;7.536;2023-02-15T16:33:53;13.10;;;6.28;;
54841;SDS011;40741;45.002;7.536;2023-02-15T16:41:13;15.35;;;6.18;;
54841;SDS011;40741;45.002;7.536;2023-02-15T16:43:40;30.98;;;7.90;;
54841;SDS011;40741;45.002;7.536;2023-02-15T16:46:09;17.60;;;5.95;;
54841;SDS011;40741;45.002;7.536;2023-02-15T16:48:39;18.70;;;6.70;;
54841;SDS011;40741;45.002;7.536;2023-02-15T16:51:06;10.55;;;4.57;;
54841;SDS011;40741;45.002;7.536;2023-02-15T16:53:32;14.68;;;7.57;;
54841;SDS011;40741;45.002;7.536;2023-02-15T16:55:59;15.63;;;6.55;;
54841;SDS011;40741;45.002;7.536;2023-02-15T16:58:28;20.70;;;7.80;;
54841;SDS011;40741;45.002;7.536;2023-02-15T17:00:55;14.80;;;5.40;;
54841;SDS011;40741;45.002;7.536;2023-02-15T17:03:22;13.10;;;5.05;;
54841;SDS011;40741;45.002;7.536;2023-02-15T17:08:19;26.95;;;9.30;;
54841;SDS011;40741;45.002;7.536;2023-02-15T17:10:46;14.52;;;9.32;;
54841;SDS011;40741;45.002;7.536;2023-02-15T17:13:27;16.87;;;5.83;;
54841;SDS011;40741;45.002;7.536;2023-02-15T17:18:27;16.98;;;8.13;;
54841;SDS011;40741;45.002;7.536;2023-02-15T17:20:55;19.95;;;7.25;;
54841;SDS011;40741;45.002;7.536;2023-02-15T17:23:40;19.50;;;7.88;;
54841;SDS011;40741;45.002;7.536;2023-02-15T17:28:44;25.55;;;10.40;;
54841;SDS011;40741;45.002;7.536;2023-02-15T17:31:12;30.35;;;15.05;;
54841;SDS011;40741;45.002;7.536;2023-02-15T17:33:39;18.17;;;6.63;;
54841;SDS011;40741;45.002;7.536;2023-02-15T17:36:13;22.63;;;10.73;;
54841;SDS011;40741;45.002;7.536;2023-02-15T17:38:59;26.00;;;13.07;;
54841;SDS011;40741;45.002;7.536;2023-02-15T17:41:27;23.20;;;7.35;;
54841;SDS011;40741;45.002;7.536;2023-02-15T17:43:54;21.75;;;9.95;;
54841;SDS011;40741;45.002;7.536;2023-02-15T17:46:20;19.98;;;9.20;;
54841;SDS011;40741;45.002;7.536;2023-02-15T17:48:50;21.38;;;8.60;;
54841;SDS011;40741;45.002;7.536;2023-02-15T17:51:17;16.20;;;9.23;;
54841;SDS011;40741;45.002;7.536;2023-02-15T17:53:44;25.17;;;9.95;;
54841;SDS011;40741;45.002;7.536;2023-02-15T17:56:34;23.08;;;9.50;;
54841;SDS011;40741;45.002;7.536;2023-02-15T17:59:00;26.73;;;12.40;;
54841;SDS011;40741;45.002;7.536;2023-02-15T18:01:32;22.83;;;11.25;;
54841;SDS011;40741;45.002;7.536;2023-02-15T18:04:17;24.75;;;9.90;;
54841;SDS011;40741;45.002;7.536;2023-02-15T18:07:02;21.90;;;8.38;;
54841;SDS011;40741;45.002;7.536;2023-02-15T18:09:47;29.88;;;10.05;;
54841;SDS011;40741;45.002;7.536;2023-02-15T18:12:35;30.23;;;13.55;;